sensor_id;sensor_type;location;lat;lon;timestamp;pressure;altitude;pressure_sealevel;temperature;humidity
13968;BME280;39536;52.198;9.920;2023-05-08T00:00:43;101439.53;;;9.97;100.00
13968;BME280;39536;52.198;9.920;2023-05-08T00:03:09;101441.31;;;9.93;100.00
13968;BME280;39536;52.198;9.920;2023-05-08T00:05:40;101446.66;;;9.85;100.00
13968;BME280;39536;52.198;9.920;2023-05-08T00:08:06;101441.50;;;9.82;100.00
13968;BME280;39536;52.198;9.920;2023-05-08T00:10:33;101436.28;;;9.81;100.00
13968;BME280;39536;52.198;9.920;2023-05-08T00:12:59;101441.50;;;9.82;100.00
13968;BME280;39536;52.198;9.920;2023-05-08T00:15:26;101445.16;;;9.69;100.00
13968;BME280;39536;52.198;9.920;2023-05-08T00:17:53;101443.50;;;9.62;100.00
13968;BME280;39536;52.198;9.920;2023-05-08T00:20:19;101444.31;;;9.65;100.00
13968;BME280;39536;52.198;9.920;2023-05-08T00:22:47;101446.16;;;9.59;100.00
13968;BME280;39536;52.198;9.920;2023-05-08T00:25:14;101442.56;;;9.67;100.00
13968;BME280;39536;52.198;9.920;2023-05-08T00:27:40;101448.72;;;9.62;100.00
13968;BME280;39536;52.198;9.920;2023-05-08T00:30:08;101448.78;;;9.56;100.00
13968;BME280;39536;52.198;9.920;2023-05-08T00:32:35;101459.09;;;9.62;100.00
13968;BME280;39536;52.198;9.920;2023-05-08T00:35:02;101452.13;;;9.67;100.00
13968;BME280;39536;52.198;9.920;2023-05-08T00:37:28;101453.75;;;9.74;100.00
13968;BME280;39536;52.198;9.920;2023-05-08T00:39:56;101439.97;;;9.67;100.00
13968;BME280;39536;52.198;9.920;2023-05-08T00:42:23;101449.44;;;9.73;100.00
13968;BME280;39536;52.198;9.920;2023-05-08T00:44:49;101441.53;;;9.78;100.00
13968;BME280;39536;52.198;9.920;2023-05-08T00:47:16;101449.34;;;9.79;100.00
13968;BME280;39536;52.198;9.920;2023-05-08T00:49:43;101443.38;;;9.73;100.00
13968;BME280;39536;52.198;9.920;2023-05-08T00:52:09;101450.31;;;9.72;100.00
13968;BME280;39536;52.198;9.920;2023-05-08T00:54:37;101448.63;;;9.68;100.00
13968;BME280;39536;52.198;9.920;2023-05-08T00:57:06;101448.72;;;9.62;100.00
13968;BME280;39536;52.198;9.920;2023-05-08T00:59:33;101448.66;;;9.65;100.00
13968;BME280;39536;52.198;9.920;2023-05-08T01:02:01;101447.88;;;9.60;100.00
13968;BME280;39536;52.198;9.920;2023-05-08T01:04:29;101440.94;;;9.59;100.00
13968;BME280;39536;52.198;9.920;2023-05-08T01:06:56;101438.25;;;9.66;100.00
13968;BME280;39536;52.198;9.920;2023-05-08T01:09:22;101441.75;;;9.64;100.00
13968;BME280;39536;52.198;9.920;2023-05-08T01:11:55;101442.56;;;9.67;100.00
13968;BME280;39536;52.198;9.920;2023-05-08T01:14:33;101444.34;;;9.64;100.00
13968;BME280;39536;52.198;9.920;2023-05-08T01:17:08;101440.13;;;9.57;100.00
13968;BME280;39536;52.198;9.920;2023-05-08T01:20:05;101441.94;;;9.50;100.00
13968;BME280;39536;52.198;9.920;2023-05-08T01:22:57;101445.53;;;9.41;100.00
13968;BME280;39536;52.198;9.920;2023-05-08T01:26:01;101439.63;;;9.29;100.00
13968;BME280;39536;52.198;9.920;2023-05-08T01:28:41;101446.50;;;9.31;100.00
13968;BME280;39536;52.198;9.920;2023-05-08T01:31:23;101449.00;;;9.40;100.00
13968;BME280;39536;52.198;9.920;2023-05-08T01:33:55;101447.31;;;9.36;100.00
13968;BME280;39536;52.198;9.920;2023-05-08T01:36:32;101436.22;;;9.23;100.00
13968;BME280;39536;52.198;9.920;2023-05-08T01:39:09;101441.56;;;9.13;100.00
13968;BME280;39536;52.198;9.920;2023-05-08T01:41:39;101433.69;;;9.17;100.00
13968;BME280;39536;52.198;9.920;2023-05-08T01:44:14;101443.16;;;9.21;100.00
13968;BME280;39536;52.198;9.920;2023-05-08T01:46:44;101442.38;;;9.15;100.00
13968;BME280;39536;52.198;9.920;2023-05-08T01:49:16;101443.34;;;9.06;100.00
13968;BME280;39536;52.198;9.920;2023-05-08T01:51:47;101441.63;;;9.07;100.00
13968;BME280;39536;52.198;9.920;2023-05-08T01:54:15;101447.84;;;8.95;100.00
13968;BME280;39536;52.198;9.920;2023-05-08T01:56:46;101441.00;;;8.86;100.00
13968;BME280;39536;52.198;9.920;2023-05-08T01:59:16;101450.44;;;8.95;100.00
13968;BME280;39536;52.198;9.920;2023-05-08T02:01:45;101456.31;;;9.09;100.00
13968;BME280;39536;52.198;9.920;2023-05-08T02:04:15;101444.91;;;9.21;100.00
13968;BME280;39536;52.198;9.920;2023-05-08T02:06:42;101446.75;;;9.13;100.00
13968;BME280;39536;52.198;9.920;2023-05-08T02:09:11;101450.28;;;9.06;100.00
13968;BME280;39536;52.198;9.920;2023-05-08T02:11:40;101449.59;;;8.90;100.00
13968;BME280;39536;52.198;9.920;2023-05-08T02:14:08;101445.22;;;8.93;100.00
13968;BME280;39536;52.198;9.920;2023-05-08T02:16:37;101442.72;;;8.84;100.00
13968;BME280;39536;52.198;9.920;2023-05-08T02:19:06;101446.34;;;8.71;100.00
13968;BME280;39536;52.198;9.920;2023-05-08T02:21:36;101448.09;;;8.69;100.00
13968;BME280;39536;52.198;9.920;2023-05-08T02:24:03;101442.03;;;8.70;100.00
13968;BME280;39536;52.198;9.920;2023-05-08T02:26:32;101445.50;;;8.70;100.00
13968;BME280;39536;52.198;9.920;2023-05-08T02:29:01;101445.50;;;8.70;100.00
13968;BME280;39536;52.198;9.920;2023-05-08T02:31:29;101441.19;;;8.68;100.00
13968;BME280;39536;52.198;9.920;2023-05-08T02:33:57;101445.59;;;8.58;100.00
13968;BME280;39536;52.198;9.920;2023-05-08T02:36:25;101443.78;;;8.69;100.00
13968;BME280;39536;52.198;9.920;2023-05-08T02:38:56;101453.06;;;8.90;100.00
13968;BME280;39536;52.198;9.920;2023-05-08T02:41:27;101448.06;;;8.72;100.00
13968;BME280;39536;52.198;9.920;2023-05-08T02:43:55;101453.25;;;8.72;100.00
13968;BME280;39536;52.198;9.920;2023-05-08T02:46:25;101447.25;;;8.65;100.00
13968;BME280;39536;52.198;9.920;2023-05-08T02:48:56;101448.16;;;8.63;100.00
13968;BME280;39536;52.198;9.920;2023-05-08T02:51:26;101450.81;;;8.58;100.00
13968;BME280;39536;52.198;9.920;2023-05-08T02:53:58;101446.44;;;8.62;100.00
13968;BME280;39536;52.198;9.920;2023-05-08T02:56:37;101449.13;;;8.54;100.00
13968;BME280;39536;52.198;9.920;2023-05-08T02:59:12;101442.16;;;8.56;100.00
13968;BME280;39536;52.198;9.920;2023-05-08T03:01:45;101448.97;;;8.68;100.00
13968;BME280;39536;52.198;9.920;2023-05-08T03:04:21;101442.81;;;8.79;100.00
13968;BME280;39536;52.198;9.920;2023-05-08T03:06:51;101441.06;;;8.80;100.00
13968;BME280;39536;52.198;9.920;2023-05-08T03:09:23;101437.47;;;8.90;100.00
13968;BME280;39536;52.198;9.920;2023-05-08T03:12:03;101440.88;;;8.94;100.00
13968;BME280;39536;52.198;9.920;2023-05-08T03:14:36;101442.63;;;8.95;100.00
13968;BME280;39536;52.198;9.920;2023-05-08T03:17:06;101444.44;;;8.88;100.00
13968;BME280;39536;52.198;9.920;2023-05-08T03:19:35;101437.50;;;8.89;100.00
13968;BME280;39536;52.198;9.920;2023-05-08T03:22:04;101434.97;;;8.81;100.00
13968;BME280;39536;52.198;9.920;2023-05-08T03:24:35;101440.16;;;8.83;100.00
13968;BME280;39536;52.198;9.920;2023-05-08T03:27:03;101444.50;;;8.81;100.00
13968;BME280;39536;52.198;9.920;2023-05-08T03:29:31;101441.91;;;8.82;100.00
13968;BME280;39536;52.198;9.920;2023-05-08T03:31:59;101438.50;;;8.78;100.00
13968;BME280;39536;52.198;9.920;2023-05-08T03:34:27;101434.22;;;8.71;100.00
13968;BME280;39536;52.198;9.920;2023-05-08T03:36:55;101435.06;;;8.72;100.00
13968;BME280;39536;52.198;9.920;2023-05-08T03:39:23;101441.16;;;8.71;100.00
13968;BME280;39536;52.198;9.920;2023-05-08T03:41:51;101430.00;;;8.61;100.00
13968;BME280;39536;52.198;9.920;2023-05-08T03:44:18;101425.78;;;8.49;100.00
13968;BME280;39536;52.198;9.920;2023-05-08T03:46:46;101431.03;;;8.43;100.00
13968;BME280;39536;52.198;9.920;2023-05-08T03:49:13;101423.31;;;8.39;100.00
13968;BME280;39536;52.198;9.920;2023-05-08T03:51:41;101425.84;;;8.37;100.00
13968;BME280;39536;52.198;9.920;2023-05-08T03:54:08;101429.38;;;8.31;100.00
13968;BME280;39536;52.198;9.920;2023-05-08T03:56:35;101429.41;;;8.27;100.00
13968;BME280;39536;52.198;9.920;2023-05-08T03:59:08;101425.06;;;8.30;100.00
13968;BME280;39536;52.198;9.920;2023-05-08T04:01:39;101425.97;;;8.25;100.00
13968;BME280;39536;52.198;9.920;2023-05-08T04:04:10;101432.97;;;8.17;100.00
13968;BME280;39536;52.198;9.920;2023-05-08T04:06:40;101437.19;;;8.25;100.00
13968;BME280;39536;52.198;9.920;2023-05-08T04:09:13;101429.47;;;8.21;100.00
13968;BME280;39536;52.198;9.920;2023-05-08T04:11:49;101431.06;;;8.34;100.00
13968;BME280;39536;52.198;9.920;2023-05-08T04:14:21;101435.34;;;8.46;100.00
13968;BME280;39536;52.198;9.920;2023-05-08T04:16:51;101430.16;;;8.46;100.00
13968;BME280;39536;52.198;9.920;2023-05-08T04:19:23;101436.97;;;8.58;100.00
13968;BME280;39536;52.198;9.920;2023-05-08T04:21:52;101443.88;;;8.60;100.00
13968;BME280;39536;52.198;9.920;2023-05-08T04:24:20;101441.28;;;8.59;100.00
13968;BME280;39536;52.198;9.920;2023-05-08T04:26:48;101443.91;;;8.55;100.00
13968;BME280;39536;52.198;9.920;2023-05-08T04:29:16;101437.84;;;8.55;100.00
13968;BME280;39536;52.198;9.920;2023-05-08T04:31:44;101435.28;;;8.52;100.00
13968;BME280;39536;52.198;9.920;2023-05-08T04:34:11;101437.78;;;8.61;100.00
13968;BME280;39536;52.198;9.920;2023-05-08T04:36:38;101439.53;;;8.61;100.00
13968;BME280;39536;52.198;9.920;2023-05-08T04:39:04;101440.34;;;8.64;100.00
13968;BME280;39536;52.198;9.920;2023-05-08T04:41:31;101448.19;;;8.61;100.00
13968;BME280;39536;52.198;9.920;2023-05-08T04:43:59;101455.97;;;8.61;100.00
13968;BME280;39536;52.198;9.920;2023-05-08T04:46:25;101450.69;;;8.69;100.00
13968;BME280;39536;52.198;9.920;2023-05-08T04:48:53;101455.78;;;8.79;100.00
13968;BME280;39536;52.198;9.920;2023-05-08T04:51:20;101454.88;;;8.85;100.00
13968;BME280;39536;52.198;9.920;2023-05-08T04:53:47;101459.19;;;8.85;100.00
13968;BME280;39536;52.198;9.920;2023-05-08T04:56:13;101456.44;;;8.97;100.00
13968;BME280;39536;52.198;9.920;2023-05-08T04:58:40;101466.84;;;8.98;100.00
13968;BME280;39536;52.198;9.920;2023-05-08T05:01:06;101465.03;;;9.05;100.00
13968;BME280;39536;52.198;9.920;2023-05-08T05:03:33;101465.88;;;9.07;100.00
13968;BME280;39536;52.198;9.920;2023-05-08T05:06:01;101473.72;;;9.02;100.00
13968;BME280;39536;52.198;9.920;2023-05-08T05:08:27;101473.69;;;9.06;100.00
13968;BME280;39536;52.198;9.920;2023-05-08T05:10:54;101474.41;;;9.18;100.00
13968;BME280;39536;52.198;9.920;2023-05-08T05:13:21;101478.63;;;9.29;100.00
13968;BME280;39536;52.198;9.920;2023-05-08T05:15:47;101482.13;;;9.24;100.00
13968;BME280;39536;52.198;9.920;2023-05-08T05:18:15;101473.44;;;9.29;100.00
13968;BME280;39536;52.198;9.920;2023-05-08T05:20:42;101469.00;;;9.34;100.00
13968;BME280;39536;52.198;9.920;2023-05-08T05:23:10;101477.59;;;9.40;100.00
13968;BME280;39536;52.198;9.920;2023-05-08T05:25:37;101476.78;;;9.37;100.00
13968;BME280;39536;52.198;9.920;2023-05-08T05:28:03;101478.56;;;9.35;100.00
13968;BME280;39536;52.198;9.920;2023-05-08T05:30:30;101475.81;;;9.45;100.00
13968;BME280;39536;52.198;9.920;2023-05-08T05:32:57;101475.78;;;9.48;100.00
13968;BME280;39536;52.198;9.920;2023-05-08T05:35:23;101469.59;;;9.56;100.00
13968;BME280;39536;52.198;9.920;2023-05-08T05:37:50;101466.31;;;9.44;100.00
13968;BME280;39536;52.198;9.920;2023-05-08T05:40:18;101469.75;;;9.43;100.00
13968;BME280;39536;52.198;9.920;2023-05-08T05:42:47;101472.25;;;9.53;100.00
13968;BME280;39536;52.198;9.920;2023-05-08T05:45:14;101473.09;;;9.53;100.00
13968;BME280;39536;52.198;9.920;2023-05-08T05:47:43;101473.88;;;9.61;100.00
13968;BME280;39536;52.198;9.920;2023-05-08T05:50:10;101473.06;;;9.58;100.00
13968;BME280;39536;52.198;9.920;2023-05-08T05:52:37;101472.06;;;9.66;100.00
13968;BME280;39536;52.198;9.920;2023-05-08T05:55:04;101473.78;;;9.69;100.00
13968;BME280;39536;52.198;9.920;2023-05-08T05:57:32;101475.41;;;9.75;100.00
13968;BME280;39536;52.198;9.920;2023-05-08T05:59:59;101475.53;;;9.65;100.00
13968;BME280;39536;52.198;9.920;2023-05-08T06:02:25;101477.16;;;9.74;100.00
13968;BME280;39536;52.198;9.920;2023-05-08T06:04:52;101468.50;;;9.75;100.00
13968;BME280;39536;52.198;9.920;2023-05-08T06:07:19;101466.56;;;9.86;100.00
13968;BME280;39536;52.198;9.920;2023-05-08T06:09:46;101458.03;;;9.78;100.00
13968;BME280;39536;52.198;9.920;2023-05-08T06:12:12;101469.31;;;9.77;100.00
13968;BME280;39536;52.198;9.920;2023-05-08T06:14:40;101467.50;;;9.82;100.00
13968;BME280;39536;52.198;9.920;2023-05-08T06:17:07;101471.78;;;9.86;100.00
13968;BME280;39536;52.198;9.920;2023-05-08T06:19:33;101474.25;;;9.95;100.00
13968;BME280;39536;52.198;9.920;2023-05-08T06:22:01;101472.53;;;9.93;100.00
13968;BME280;39536;52.198;9.920;2023-05-08T06:24:27;101469.84;;;10.01;100.00
13968;BME280;39536;52.198;9.920;2023-05-08T06:26:54;101480.97;;;10.10;100.00
13968;BME280;39536;52.198;9.920;2023-05-08T06:29:20;101485.22;;;10.14;100.00
13968;BME280;39536;52.198;9.920;2023-05-08T06:31:48;101479.06;;;10.20;100.00
13968;BME280;39536;52.198;9.920;2023-05-08T06:34:15;101484.16;;;10.29;100.00
13968;BME280;39536;52.198;9.920;2023-05-08T06:36:41;101483.13;;;10.39;100.00
13968;BME280;39536;52.198;9.920;2023-05-08T06:39:08;101488.19;;;10.49;100.00
13968;BME280;39536;52.198;9.920;2023-05-08T06:41:34;101491.75;;;10.43;100.00
13968;BME280;39536;52.198;9.920;2023-05-08T06:44:01;101492.34;;;10.59;100.00
13968;BME280;39536;52.198;9.920;2023-05-08T06:46:28;101489.63;;;10.67;100.00
13968;BME280;39536;52.198;9.920;2023-05-08T06:48:56;101484.94;;;10.84;100.00
13968;BME280;39536;52.198;9.920;2023-05-08T06:51:22;101485.78;;;10.88;100.00
13968;BME280;39536;52.198;9.920;2023-05-08T06:53:49;101485.50;;;11.01;100.00
13968;BME280;39536;52.198;9.920;2023-05-08T06:56:15;101491.31;;;11.16;100.00
13968;BME280;39536;52.198;9.920;2023-05-08T06:58:42;101489.47;;;11.21;100.00
13968;BME280;39536;52.198;9.920;2023-05-08T07:01:09;101491.09;;;11.28;100.00
13968;BME280;39536;52.198;9.920;2023-05-08T07:03:36;101483.16;;;11.32;100.00
13968;BME280;39536;52.198;9.920;2023-05-08T07:06:07;101486.28;;;11.50;100.00
13968;BME280;39536;52.198;9.920;2023-05-08T07:08:34;101486.22;;;11.51;100.00
13968;BME280;39536;52.198;9.920;2023-05-08T07:11:00;101483.22;;;11.70;100.00
13968;BME280;39536;52.198;9.920;2023-05-08T07:13:27;101483.78;;;11.86;100.00
13968;BME280;39536;52.198;9.920;2023-05-08T07:15:54;101493.09;;;11.96;100.00
13968;BME280;39536;52.198;9.920;2023-05-08T07:18:21;101489.69;;;11.94;100.00
13968;BME280;39536;52.198;9.920;2023-05-08T07:20:48;101494.84;;;11.97;100.00
13968;BME280;39536;52.198;9.920;2023-05-08T07:23:15;101492.88;;;12.07;100.00
13968;BME280;39536;52.198;9.920;2023-05-08T07:25:42;101488.22;;;12.19;100.00
13968;BME280;39536;52.198;9.920;2023-05-08T07:28:09;101485.31;;;12.32;100.00
13968;BME280;39536;52.198;9.920;2023-05-08T07:30:36;101482.13;;;12.19;100.00
13968;BME280;39536;52.198;9.920;2023-05-08T07:33:02;101484.22;;;12.40;100.00
13968;BME280;39536;52.198;9.920;2023-05-08T07:35:29;101501.16;;;12.60;100.00
13968;BME280;39536;52.198;9.920;2023-05-08T07:37:55;101503.47;;;12.72;100.00
13968;BME280;39536;52.198;9.920;2023-05-08T07:40:23;101500.88;;;12.70;100.00
13968;BME280;39536;52.198;9.920;2023-05-08T07:42:50;101499.25;;;12.66;100.00
13968;BME280;39536;52.198;9.920;2023-05-08T07:45:17;101491.81;;;12.84;100.00
13968;BME280;39536;52.198;9.920;2023-05-08T07:47:50;101496.75;;;12.94;100.00
13968;BME280;39536;52.198;9.920;2023-05-08T07:50:17;101495.03;;;12.93;100.00
13968;BME280;39536;52.198;9.920;2023-05-08T07:52:44;101500.63;;;13.12;100.00
13968;BME280;39536;52.198;9.920;2023-05-08T07:55:11;101504.53;;;13.30;100.00
13968;BME280;39536;52.198;9.920;2023-05-08T07:57:41;101495.53;;;13.39;100.00
13968;BME280;39536;52.198;9.920;2023-05-08T08:00:09;101499.53;;;13.52;100.00
13968;BME280;39536;52.198;9.920;2023-05-08T08:02:36;101489.94;;;13.51;100.00
13968;BME280;39536;52.198;9.920;2023-05-08T08:05:03;101494.50;;;13.74;100.00
13968;BME280;39536;52.198;9.920;2023-05-08T08:07:30;101490.91;;;13.77;100.00
13968;BME280;39536;52.198;9.920;2023-05-08T08:09:57;101487.81;;;13.92;100.00
13968;BME280;39536;52.198;9.920;2023-05-08T08:12:24;101485.13;;;13.95;100.00
13968;BME280;39536;52.198;9.920;2023-05-08T08:14:51;101493.50;;;14.06;100.00
13968;BME280;39536;52.198;9.920;2023-05-08T08:17:18;101488.69;;;14.21;100.00
13968;BME280;39536;52.198;9.920;2023-05-08T08:19:45;101488.78;;;14.18;100.00
13968;BME280;39536;52.198;9.920;2023-05-08T08:22:11;101485.50;;;14.38;100.00
13968;BME280;39536;52.198;9.920;2023-05-08T08:24:38;101490.44;;;14.47;100.00
13968;BME280;39536;52.198;9.920;2023-05-08T08:27:05;101490.50;;;14.72;100.00
13968;BME280;39536;52.198;9.920;2023-05-08T08:29:31;101496.38;;;14.78;100.00
13968;BME280;39536;52.198;9.920;2023-05-08T08:31:59;101492.94;;;14.76;100.00
13968;BME280;39536;52.198;9.920;2023-05-08T08:34:27;101496.56;;;14.74;100.00
13968;BME280;39536;52.198;9.920;2023-05-08T08:36:54;101495.63;;;14.75;100.00
13968;BME280;39536;52.198;9.920;2023-05-08T08:39:20;101485.69;;;14.85;100.00
13968;BME280;39536;52.198;9.920;2023-05-08T08:41:47;101490.00;;;14.86;100.00
13968;BME280;39536;52.198;9.920;2023-05-08T08:44:13;101486.91;;;14.99;100.00
13968;BME280;39536;52.198;9.920;2023-05-08T08:46:43;101478.94;;;15.02;100.00
13968;BME280;39536;52.198;9.920;2023-05-08T08:49:18;101481.38;;;15.07;100.00
13968;BME280;39536;52.198;9.920;2023-05-08T08:51:50;101482.47;;;15.25;100.00
13968;BME280;39536;52.198;9.920;2023-05-08T08:54:20;101479.41;;;15.37;100.00
13968;BME280;39536;52.198;9.920;2023-05-08T08:56:49;101473.84;;;15.45;100.00
13968;BME280;39536;52.198;9.920;2023-05-08T08:59:17;101465.63;;;15.54;100.00
13968;BME280;39536;52.198;9.920;2023-05-08T09:01:46;101469.84;;;15.58;100.00
13968;BME280;39536;52.198;9.920;2023-05-08T09:04:15;101472.25;;;15.64;100.00
13968;BME280;39536;52.198;9.920;2023-05-08T09:06:44;101467.03;;;15.63;100.00
13968;BME280;39536;52.198;9.920;2023-05-08T09:09:11;101471.09;;;15.95;100.00
13968;BME280;39536;52.198;9.920;2023-05-08T09:11:38;101471.84;;;15.97;100.00
13968;BME280;39536;52.198;9.920;2023-05-08T09:14:05;101469.84;;;16.04;100.00
13968;BME280;39536;52.198;9.920;2023-05-08T09:16:32;101473.06;;;16.10;100.00
13968;BME280;39536;52.198;9.920;2023-05-08T09:19:00;101464.63;;;16.24;100.00
13968;BME280;39536;52.198;9.920;2023-05-08T09:21:28;101457.47;;;16.28;100.00
13968;BME280;39536;52.198;9.920;2023-05-08T09:23:57;101457.34;;;16.31;100.00
13968;BME280;39536;52.198;9.920;2023-05-08T09:26:28;101445.59;;;16.39;100.00
13968;BME280;39536;52.198;9.920;2023-05-08T09:29:15;101445.91;;;16.52;100.00
13968;BME280;39536;52.198;9.920;2023-05-08T09:31:43;101453.31;;;16.63;100.00
13968;BME280;39536;52.198;9.920;2023-05-08T09:34:12;101450.72;;;16.83;100.00
13968;BME280;39536;52.198;9.920;2023-05-08T09:36:47;101453.28;;;16.85;100.00
13968;BME280;39536;52.198;9.920;2023-05-08T09:39:21;101448.13;;;17.02;100.00
13968;BME280;39536;52.198;9.920;2023-05-08T09:41:58;101448.16;;;17.21;100.00
13968;BME280;39536;52.198;9.920;2023-05-08T09:44:24;101447.22;;;17.41;100.00
13968;BME280;39536;52.198;9.920;2023-05-08T09:46:51;101437.84;;;17.54;100.00
13968;BME280;39536;52.198;9.920;2023-05-08T09:49:34;101450.44;;;17.48;100.00
13968;BME280;39536;52.198;9.920;2023-05-08T09:52:00;101445.81;;;17.34;100.00
13968;BME280;39536;52.198;9.920;2023-05-08T09:54:29;101447.09;;;17.44;100.00
13968;BME280;39536;52.198;9.920;2023-05-08T09:56:55;101445.59;;;17.58;100.00
13968;BME280;39536;52.198;9.920;2023-05-08T09:59:23;101445.50;;;17.59;100.00
13968;BME280;39536;52.198;9.920;2023-05-08T10:01:50;101446.16;;;17.83;100.00
13968;BME280;39536;52.198;9.920;2023-05-08T10:04:17;101447.00;;;17.84;100.00
13968;BME280;39536;52.198;9.920;2023-05-08T10:06:55;101446.22;;;17.82;100.00
13968;BME280;39536;52.198;9.920;2023-05-08T10:09:22;101435.88;;;17.96;100.00
13968;BME280;39536;52.198;9.920;2023-05-08T10:11:51;101432.94;;;18.02;100.00
13968;BME280;39536;52.198;9.920;2023-05-08T10:14:19;101430.06;;;18.24;100.00
13968;BME280;39536;52.198;9.920;2023-05-08T10:16:47;101434.88;;;18.16;100.00
13968;BME280;39536;52.198;9.920;2023-05-08T10:19:18;101422.72;;;18.31;100.00
13968;BME280;39536;52.198;9.920;2023-05-08T10:21:46;101427.97;;;18.31;100.00
13968;BME280;39536;52.198;9.920;2023-05-08T10:24:15;101433.72;;;18.39;100.00
13968;BME280;39536;52.198;9.920;2023-05-08T10:26:47;101428.47;;;18.39;100.00
13968;BME280;39536;52.198;9.920;2023-05-08T10:29:21;101428.69;;;18.52;100.00
13968;BME280;39536;52.198;9.920;2023-05-08T10:31:53;101420.50;;;18.56;100.00
13968;BME280;39536;52.198;9.920;2023-05-08T10:34:26;101422.66;;;18.65;100.00
13968;BME280;39536;52.198;9.920;2023-05-08T10:36:53;101414.59;;;18.68;100.00
13968;BME280;39536;52.198;9.920;2023-05-08T10:39:20;101419.50;;;18.59;100.00
13968;BME280;39536;52.198;9.920;2023-05-08T10:41:47;101417.03;;;18.56;100.00
13968;BME280;39536;52.198;9.920;2023-05-08T10:44:15;101418.09;;;18.69;100.00
13968;BME280;39536;52.198;9.920;2023-05-08T10:46:48;101421.22;;;18.77;100.00
13968;BME280;39536;52.198;9.920;2023-05-08T10:49:19;101416.41;;;18.85;100.00
13968;BME280;39536;52.198;9.920;2023-05-08T10:51:57;101419.72;;;18.89;100.00
13968;BME280;39536;52.198;9.920;2023-05-08T10:54:35;101406.41;;;18.90;100.00
13968;BME280;39536;52.198;9.920;2023-05-08T10:57:08;101413.44;;;19.07;100.00
13968;BME280;39536;52.198;9.920;2023-05-08T10:59:35;101411.84;;;19.21;100.00
13968;BME280;39536;52.198;9.920;2023-05-08T11:02:04;101407.69;;;19.32;100.00
13968;BME280;39536;52.198;9.920;2023-05-08T11:04:31;101414.50;;;19.36;100.00
13968;BME280;39536;52.198;9.920;2023-05-08T11:06:58;101411.94;;;19.35;100.00
13968;BME280;39536;52.198;9.920;2023-05-08T11:09:28;101416.63;;;19.46;100.00
13968;BME280;39536;52.198;9.920;2023-05-08T11:12:17;101405.72;;;19.68;100.00
13968;BME280;39536;52.198;9.920;2023-05-08T11:14:54;101412.25;;;19.92;100.00
13968;BME280;39536;52.198;9.920;2023-05-08T11:17:25;101411.41;;;19.92;100.00
13968;BME280;39536;52.198;9.920;2023-05-08T11:19:57;101401.31;;;19.98;100.00
13968;BME280;39536;52.198;9.920;2023-05-08T11:22:25;101396.53;;;20.05;100.00
13968;BME280;39536;52.198;9.920;2023-05-08T11:25:01;101400.00;;;20.05;100.00
13968;BME280;39536;52.198;9.920;2023-05-08T11:27:37;101389.78;;;19.99;100.00
13968;BME280;39536;52.198;9.920;2023-05-08T11:30:24;101387.28;;;20.12;100.00
13968;BME280;39536;52.198;9.920;2023-05-08T11:33:13;101391.34;;;20.18;100.00
13968;BME280;39536;52.198;9.920;2023-05-08T11:35:45;101384.84;;;20.23;100.00
13968;BME280;39536;52.198;9.920;2023-05-08T11:38:21;101388.75;;;20.46;100.00
13968;BME280;39536;52.198;9.920;2023-05-08T11:40:53;101382.81;;;20.43;100.00
13968;BME280;39536;52.198;9.920;2023-05-08T11:46:38;101380.94;;;20.45;100.00
13968;BME280;39536;52.198;9.920;2023-05-08T11:49:09;101372.69;;;20.35;100.00
13968;BME280;39536;52.198;9.920;2023-05-08T11:51:36;101380.47;;;20.52;100.00
13968;BME280;39536;52.198;9.920;2023-05-08T11:54:03;101385.03;;;20.65;100.00
13968;BME280;39536;52.198;9.920;2023-05-08T11:56:30;101386.94;;;20.63;100.00
13968;BME280;39536;52.198;9.920;2023-05-08T11:59:01;101378.13;;;20.76;100.00
13968;BME280;39536;52.198;9.920;2023-05-08T12:01:29;101387.38;;;20.84;100.00
13968;BME280;39536;52.198;9.920;2023-05-08T12:04:00;101385.97;;;20.92;100.00
13968;BME280;39536;52.198;9.920;2023-05-08T12:06:28;101387.66;;;21.08;99.44
13968;BME280;39536;52.198;9.920;2023-05-08T12:08:56;101369.34;;;21.32;98.33
13968;BME280;39536;52.198;9.920;2023-05-08T12:11:23;101379.19;;;21.30;99.05
13968;BME280;39536;52.198;9.920;2023-05-08T12:13:50;101380.41;;;21.53;100.00
13968;BME280;39536;52.198;9.920;2023-05-08T12:16:17;101375.47;;;21.74;98.43
13968;BME280;39536;52.198;9.920;2023-05-08T12:18:48;101379.38;;;22.08;97.76
13968;BME280;39536;52.198;9.920;2023-05-08T12:21:15;101380.75;;;22.01;92.33
13968;BME280;39536;52.198;9.920;2023-05-08T12:23:43;101372.19;;;22.10;93.70
13968;BME280;39536;52.198;9.920;2023-05-08T12:26:09;101380.59;;;22.17;93.50
13968;BME280;39536;52.198;9.920;2023-05-08T12:28:37;101379.34;;;22.35;93.00
13968;BME280;39536;52.198;9.920;2023-05-08T12:31:05;101379.88;;;22.40;90.01
13968;BME280;39536;52.198;9.920;2023-05-08T12:33:32;101370.22;;;22.39;91.06
13968;BME280;39536;52.198;9.920;2023-05-08T12:36:00;101367.97;;;22.46;92.09
13968;BME280;39536;52.198;9.920;2023-05-08T12:38:28;101372.66;;;22.42;90.90
13968;BME280;39536;52.198;9.920;2023-05-08T12:40:56;101373.72;;;22.52;91.59
13968;BME280;39536;52.198;9.920;2023-05-08T12:43:30;101373.41;;;22.57;88.76
13968;BME280;39536;52.198;9.920;2023-05-08T12:45:57;101376.06;;;22.57;89.88
13968;BME280;39536;52.198;9.920;2023-05-08T12:48:23;101376.03;;;22.70;89.14
13968;BME280;39536;52.198;9.920;2023-05-08T12:50:50;101372.09;;;22.88;88.36
13968;BME280;39536;52.198;9.920;2023-05-08T12:53:19;101374.66;;;23.02;86.26
13968;BME280;39536;52.198;9.920;2023-05-08T12:55:50;101367.13;;;22.96;86.81
13968;BME280;39536;52.198;9.920;2023-05-08T12:58:18;101371.75;;;23.18;86.22